createdAt,value
2023-04-22T00:00:26.088Z,51.11
2023-04-22T00:01:26.155Z,44.62
2023-04-22T00:02:26.248Z,48.53
2023-04-22T00:03:26.455Z,48.91
2023-04-22T00:04:26.555Z,50.90
2023-04-22T00:05:26.536Z,49.46
2023-04-22T00:06:26.417Z,32.69
2023-04-22T00:07:26.495Z,31.90
2023-04-22T00:08:26.571Z,27.89
2023-04-22T00:09:26.600Z,33.32
2023-04-22T00:10:26.643Z,30.75
2023-04-22T00:11:26.720Z,35.22
2023-04-22T00:12:26.775Z,37.28
2023-04-22T00:13:26.856Z,31.65
2023-04-22T00:14:26.900Z,30.48
2023-04-22T00:15:26.935Z,32.72
2023-04-22T00:16:27.033Z,31.55
2023-04-22T00:17:27.115Z,35.02
2023-04-22T00:18:27.111Z,36.74
2023-04-22T00:19:27.160Z,29.99
2023-04-22T00:20:27.211Z,32.16
2023-04-22T00:21:27.252Z,26.51
2023-04-22T00:22:27.292Z,30.58
2023-04-22T00:23:27.330Z,41.34
2023-04-22T00:24:27.382Z,32.36
2023-04-22T00:25:27.437Z,26.34
2023-04-22T00:26:27.483Z,25.52
2023-04-22T00:27:27.521Z,28.64
2023-04-22T00:28:27.552Z,43.78
2023-04-22T00:29:27.596Z,36.67
2023-04-22T00:30:27.679Z,32.03
2023-04-22T00:31:27.769Z,39.54
2023-04-22T00:32:27.841Z,31.75
2023-04-22T00:33:27.814Z,39.70
2023-04-22T00:34:27.890Z,35.80
2023-04-22T00:35:27.959Z,47.26
2023-04-22T00:36:27.998Z,38.87
2023-04-22T00:37:28.094Z,43.32
2023-04-22T00:38:28.113Z,41.89
2023-04-22T00:39:28.177Z,40.38
2023-04-22T00:40:28.254Z,42.05
2023-04-22T00:41:28.292Z,42.78
2023-04-22T00:42:28.337Z,37.27
2023-04-22T00:43:28.399Z,40.44
2023-04-22T00:44:28.455Z,37.02
2023-04-22T00:45:28.506Z,43.57
2023-04-22T00:46:28.603Z,41.94
2023-04-22T00:47:28.664Z,55.57
2023-04-22T00:48:29.028Z,48.39
2023-04-22T00:49:28.725Z,45.74
2023-04-22T00:50:28.791Z,47.81
2023-04-22T00:51:28.808Z,60.47
2023-04-22T00:52:28.853Z,61.42
2023-04-22T00:53:28.883Z,60.23
2023-04-22T00:54:28.958Z,54.29
2023-04-22T00:55:29.000Z,60.83
2023-04-22T00:56:29.043Z,56.85
2023-04-22T00:57:29.103Z,53.66
2023-04-22T00:58:29.175Z,50.44
2023-04-22T00:59:29.222Z,47.51
2023-04-22T01:00:29.367Z,50.30
2023-04-22T01:01:29.405Z,43.19
2023-04-22T01:02:29.457Z,55.98
2023-04-22T01:03:29.554Z,56.02
2023-04-22T01:04:29.480Z,53.44
2023-04-22T01:05:29.486Z,50.13
2023-04-22T01:06:29.509Z,50.99
2023-04-22T01:07:29.524Z,46.93
2023-04-22T01:08:29.580Z,31.23
2023-04-22T01:09:29.613Z,49.68
2023-04-22T01:10:29.652Z,60.22
2023-04-22T01:11:29.638Z,47.73
2023-04-22T01:12:29.680Z,56.50
2023-04-22T01:13:29.674Z,62.07
2023-04-22T01:14:29.712Z,69.43
2023-04-22T01:15:29.753Z,64.19
2023-04-22T01:16:29.785Z,75.00
2023-04-22T01:17:29.764Z,64.16
2023-04-22T01:18:29.783Z,61.71
2023-04-22T01:19:29.800Z,59.24
2023-04-22T01:20:29.809Z,63.71
2023-04-22T01:21:29.828Z,54.24
2023-04-22T01:22:29.878Z,57.23
2023-04-22T01:23:29.899Z,66.55
2023-04-22T01:24:29.921Z,71.45
2023-04-22T01:25:29.951Z,73.01
2023-04-22T01:26:30.019Z,74.91
2023-04-22T01:27:30.055Z,61.95
2023-04-22T01:28:30.080Z,65.18
2023-04-22T01:29:30.120Z,73.07
2023-04-22T01:30:30.170Z,73.09
2023-04-22T01:31:30.217Z,85.37
2023-04-22T01:32:30.327Z,76.65
2023-04-22T01:33:30.211Z,60.44
2023-04-22T01:34:30.245Z,65.69
2023-04-22T01:35:30.265Z,63.87
2023-04-22T01:36:30.280Z,70.32
2023-04-22T01:37:30.275Z,80.50
2023-04-22T01:38:30.337Z,74.96
2023-04-22T01:39:30.372Z,72.55
2023-04-22T01:40:30.498Z,69.41
2023-04-22T01:41:30.426Z,58.75
2023-04-22T01:42:30.461Z,67.05
2023-04-22T01:43:30.511Z,63.72
2023-04-22T01:44:30.490Z,53.27
2023-04-22T01:45:30.502Z,52.50
2023-04-22T01:46:30.689Z,59.71
2023-04-22T01:47:30.558Z,52.62
2023-04-22T01:48:30.567Z,51.08
2023-04-22T01:49:30.594Z,56.66
2023-04-22T01:50:30.640Z,64.51
2023-04-22T01:51:30.664Z,61.49
2023-04-22T01:52:30.676Z,68.83
2023-04-22T01:53:30.716Z,65.57
2023-04-22T01:54:30.710Z,72.11
2023-04-22T01:55:30.737Z,75.90
2023-04-22T01:56:30.766Z,85.47
2023-04-22T01:57:30.780Z,81.72
2023-04-22T01:58:30.805Z,86.30
2023-04-22T01:59:30.824Z,74.46
2023-04-22T02:00:30.810Z,80.40
2023-04-22T02:01:30.881Z,89.81
2023-04-22T02:02:30.888Z,94.04
2023-04-22T02:03:30.933Z,77.12
2023-04-22T02:04:30.873Z,74.25
2023-04-22T02:05:30.867Z,79.56
2023-04-22T02:06:30.870Z,78.87
2023-04-22T02:07:30.878Z,68.40
2023-04-22T02:08:30.886Z,77.11
2023-04-22T02:09:30.901Z,71.79
2023-04-22T02:10:30.908Z,61.56
2023-04-22T02:11:30.928Z,65.03
2023-04-22T02:12:30.910Z,65.11
2023-04-22T02:13:30.898Z,71.88
2023-04-22T02:14:30.919Z,69.15
2023-04-22T02:15:31.026Z,85.00
2023-04-22T02:16:31.200Z,76.39
2023-04-22T02:17:30.970Z,72.11
2023-04-22T02:18:30.944Z,73.00
2023-04-22T02:19:30.994Z,72.51
2023-04-22T02:20:30.967Z,60.61
2023-04-22T02:21:30.974Z,73.99
2023-04-22T02:22:30.958Z,84.30
2023-04-22T02:23:30.966Z,69.42
2023-04-22T02:24:30.957Z,66.64
2023-04-22T02:25:31.153Z,64.66
2023-04-22T02:26:30.960Z,75.25
2023-04-22T02:27:30.978Z,78.27
2023-04-22T02:28:31.002Z,89.16
2023-04-22T02:29:31.010Z,89.78
2023-04-22T02:30:31.050Z,82.39
2023-04-22T02:31:31.057Z,91.54
2023-04-22T02:32:31.101Z,84.48
2023-04-22T02:33:31.067Z,84.10
2023-04-22T02:34:31.071Z,81.15
2023-04-22T02:35:31.085Z,92.40
2023-04-22T02:36:31.119Z,92.94
2023-04-22T02:37:31.070Z,82.79
2023-04-22T02:38:31.077Z,95.21
2023-04-22T02:39:31.076Z,86.16
2023-04-22T02:40:31.110Z,85.87
2023-04-22T02:41:31.098Z,75.97
2023-04-22T02:42:31.105Z,76.18
2023-04-22T02:43:31.141Z,86.51
2023-04-22T02:44:31.159Z,92.55
2023-04-22T02:45:31.164Z,90.09
2023-04-22T02:46:31.175Z,90.32
2023-04-22T02:47:31.177Z,94.97
2023-04-22T02:48:31.149Z,86.73
2023-04-22T02:49:31.149Z,96.79
2023-04-22T02:50:31.166Z,82.21
2023-04-22T02:51:31.188Z,86.69
2023-04-22T02:52:31.193Z,89.22
2023-04-22T02:53:31.191Z,77.98
2023-04-22T02:54:31.197Z,77.94
2023-04-22T02:55:31.231Z,71.53
2023-04-22T02:56:31.208Z,73.87
2023-04-22T02:57:31.197Z,69.92
2023-04-22T02:58:31.202Z,72.60
2023-04-22T02:59:31.227Z,76.15
2023-04-22T03:00:31.234Z,87.59
2023-04-22T03:01:31.366Z,99.31
2023-04-22T03:02:31.373Z,90.01
2023-04-22T03:03:31.359Z,87.56
2023-04-22T03:04:31.289Z,85.16
2023-04-22T03:05:31.265Z,91.95
2023-04-22T03:06:31.295Z,85.76
2023-04-22T03:07:31.281Z,79.87
2023-04-22T03:08:31.321Z,83.36
2023-04-22T03:09:31.290Z,94.10
2023-04-22T03:10:31.276Z,98.38
2023-04-22T03:11:31.283Z,93.18
2023-04-22T03:12:31.279Z,94.68
2023-04-22T03:13:31.291Z,88.81
2023-04-22T03:14:31.329Z,83.31
2023-04-22T03:15:31.349Z,83.09
2023-04-22T03:16:31.394Z,89.94
2023-04-22T03:17:31.421Z,95.39
2023-04-22T03:18:31.355Z,96.98
2023-04-22T03:19:31.367Z,96.24
2023-04-22T03:20:31.389Z,103.93
2023-04-22T03:21:31.366Z,88.36
2023-04-22T03:22:31.386Z,89.38
2023-04-22T03:23:31.413Z,86.00
2023-04-22T03:24:31.398Z,95.34
2023-04-22T03:25:31.416Z,100.20
2023-04-22T03:26:31.425Z,97.94
2023-04-22T03:27:31.433Z,98.24
2023-04-22T03:28:31.438Z,98.36
2023-04-22T03:29:31.450Z,96.39
2023-04-22T03:30:31.480Z,101.67
2023-04-22T03:31:31.527Z,101.19
2023-04-22T03:32:31.537Z,100.59
2023-04-22T03:33:31.493Z,104.72
2023-04-22T03:34:31.513Z,113.85
2023-04-22T03:35:31.490Z,107.35
2023-04-22T03:36:31.477Z,108.06
2023-04-22T03:37:31.494Z,109.04
2023-04-22T03:38:31.473Z,90.39
2023-04-22T03:39:31.514Z,75.00
2023-04-22T03:40:31.519Z,80.11
2023-04-22T03:41:31.492Z,88.08
2023-04-22T03:42:31.484Z,80.02
2023-04-22T03:43:31.516Z,84.43
2023-04-22T03:44:31.494Z,88.05
2023-04-22T03:45:31.540Z,79.45
2023-04-22T03:46:31.611Z,86.48
2023-04-22T03:47:31.495Z,88.00
2023-04-22T03:48:31.478Z,93.96
2023-04-22T03:49:31.467Z,86.09
2023-04-22T03:50:31.489Z,84.59
2023-04-22T03:51:31.483Z,91.41
2023-04-22T03:52:31.465Z,95.11
2023-04-22T03:53:31.454Z,90.00
2023-04-22T03:54:31.497Z,78.46
2023-04-22T03:55:31.495Z,77.22
2023-04-22T03:56:31.497Z,81.99
2023-04-22T03:57:31.473Z,67.17
2023-04-22T03:58:31.488Z,76.77
2023-04-22T03:59:31.482Z,87.08
2023-04-22T04:00:31.486Z,91.75
2023-04-22T04:01:31.490Z,100.58
2023-04-22T04:02:31.594Z,84.68
2023-04-22T04:03:31.768Z,83.05
2023-04-22T04:04:31.976Z,88.74
2023-04-22T04:05:31.852Z,89.08
2023-04-22T04:06:31.469Z,88.96
2023-04-22T04:07:31.463Z,92.64
2023-04-22T04:08:31.449Z,90.09
2023-04-22T04:09:31.469Z,97.09
2023-04-22T04:10:31.472Z,91.32
2023-04-22T04:11:31.446Z,91.17
2023-04-22T04:12:31.462Z,89.37
2023-04-22T04:13:31.463Z,82.07
2023-04-22T04:14:31.461Z,83.50
2023-04-22T04:15:31.459Z,88.55
2023-04-22T04:16:31.587Z,95.83
2023-04-22T04:17:31.477Z,87.73
2023-04-22T04:18:31.439Z,82.93
2023-04-22T04:19:31.452Z,80.89
2023-04-22T04:20:31.451Z,84.14
2023-04-22T04:21:31.452Z,79.78
2023-04-22T04:22:31.472Z,69.92
2023-04-22T04:23:31.439Z,77.16
2023-04-22T04:24:31.443Z,76.86
2023-04-22T04:25:31.434Z,80.45
2023-04-22T04:26:31.446Z,79.36
2023-04-22T04:27:31.435Z,72.60
2023-04-22T04:28:31.452Z,73.48
2023-04-22T04:29:31.417Z,80.96
2023-04-22T04:30:33.519Z,81.51
2023-04-22T04:31:31.495Z,79.88
2023-04-22T04:32:31.408Z,70.19
2023-04-22T04:33:31.421Z,72.31
2023-04-22T04:34:31.413Z,78.44
2023-04-22T04:35:31.406Z,74.70
2023-04-22T04:36:31.421Z,73.73
2023-04-22T04:37:31.396Z,71.69
2023-04-22T04:38:31.420Z,74.49
2023-04-22T04:39:31.367Z,76.39
2023-04-22T04:40:31.377Z,74.48
2023-04-22T04:41:31.369Z,68.71
2023-04-22T04:42:31.367Z,71.21
2023-04-22T04:43:31.350Z,69.92
2023-04-22T04:44:31.351Z,63.73
2023-04-22T04:45:31.330Z,67.03
2023-04-22T04:46:31.380Z,69.20
2023-04-22T04:47:31.361Z,71.59
2023-04-22T04:48:31.310Z,67.00
2023-04-22T04:49:31.303Z,68.29
2023-04-22T04:50:31.316Z,65.73
2023-04-22T04:51:31.309Z,69.94
2023-04-22T04:52:31.318Z,71.22
2023-04-22T04:53:31.285Z,71.25
2023-04-22T04:54:31.267Z,68.41
2023-04-22T04:55:31.262Z,67.36
2023-04-22T04:56:31.281Z,63.92
2023-04-22T04:57:31.264Z,61.02
2023-04-22T04:58:31.266Z,60.79
2023-04-22T04:59:31.262Z,61.25
2023-04-22T05:00:31.234Z,64.46
2023-04-22T05:01:31.302Z,63.70
2023-04-22T05:02:31.420Z,64.93
2023-04-22T05:03:31.396Z,68.69
2023-04-22T05:04:31.358Z,68.25
2023-04-22T05:05:31.219Z,61.07
2023-04-22T05:06:31.226Z,65.15
2023-04-22T05:07:31.211Z,60.99
2023-04-22T05:08:31.189Z,58.25
2023-04-22T05:09:31.183Z,57.13
2023-04-22T05:10:31.187Z,52.05
2023-04-22T05:11:31.266Z,44.80
2023-04-22T05:12:31.180Z,44.82
2023-04-22T05:13:31.165Z,41.63
2023-04-22T05:14:31.168Z,45.74
2023-04-22T05:15:31.168Z,45.63
2023-04-22T05:16:31.237Z,50.84
2023-04-22T05:17:31.179Z,48.25
2023-04-22T05:18:31.148Z,51.27
2023-04-22T05:19:31.134Z,52.50
2023-04-22T05:20:32.104Z,58.87
2023-04-22T05:21:31.130Z,66.01
2023-04-22T05:22:31.151Z,65.73
2023-04-22T05:23:31.096Z,72.30
2023-04-22T05:24:31.102Z,67.17
2023-04-22T05:25:31.098Z,70.92
2023-04-22T05:26:31.131Z,70.14
2023-04-22T05:27:31.070Z,65.54
2023-04-22T05:28:31.082Z,68.20
2023-04-22T05:29:31.047Z,66.61
2023-04-22T05:30:31.050Z,67.54
2023-04-22T05:31:31.078Z,68.56
2023-04-22T05:32:31.121Z,69.93
2023-04-22T05:33:31.162Z,69.26
2023-04-22T05:34:31.265Z,74.16
2023-04-22T05:35:31.270Z,73.68
2023-04-22T05:36:31.650Z,71.22
2023-04-22T05:37:31.404Z,73.69
2023-04-22T05:38:31.444Z,74.56
2023-04-22T05:39:31.541Z,74.04
2023-04-22T05:40:31.535Z,75.33
2023-04-22T05:41:31.602Z,68.25
2023-04-22T05:42:31.606Z,67.49
2023-04-22T05:43:31.629Z,65.59
2023-04-22T05:44:31.688Z,63.86
2023-04-22T05:45:31.734Z,62.50
2023-04-22T05:46:31.826Z,61.18
2023-04-22T05:47:31.803Z,61.80
2023-04-22T05:48:31.790Z,59.42
2023-04-22T05:49:31.830Z,60.21
2023-04-22T05:50:31.878Z,65.90
2023-04-22T05:51:31.895Z,64.76
2023-04-22T05:52:31.939Z,68.53
2023-04-22T05:53:31.979Z,65.90
2023-04-22T05:54:32.036Z,66.03
2023-04-22T05:55:32.145Z,61.79
2023-04-22T05:56:32.129Z,56.03
2023-04-22T05:57:32.127Z,54.79
2023-04-22T05:58:32.160Z,51.12
2023-04-22T05:59:32.168Z,52.32
2023-04-22T06:00:32.210Z,49.21
2023-04-22T06:01:32.237Z,44.91
2023-04-22T06:02:32.350Z,47.73
2023-04-22T06:03:32.501Z,48.87
2023-04-22T06:04:34.497Z,46.81
2023-04-22T06:05:32.466Z,46.97
2023-04-22T06:06:32.384Z,45.56
2023-04-22T06:07:32.379Z,42.98
2023-04-22T06:08:32.350Z,48.58
2023-04-22T06:09:32.330Z,47.73
2023-04-22T06:10:32.323Z,47.46
2023-04-22T06:11:32.334Z,50.41
2023-04-22T06:12:32.304Z,46.72
2023-04-22T06:13:32.302Z,45.73
2023-04-22T06:14:32.292Z,42.89
2023-04-22T06:15:32.318Z,43.12
2023-04-22T06:16:32.301Z,35.36
2023-04-22T06:17:32.310Z,32.88
2023-04-22T06:18:32.269Z,33.37
2023-04-22T06:19:32.268Z,32.45
2023-04-22T06:20:32.277Z,28.18
2023-04-22T06:21:32.275Z,29.57
2023-04-22T06:22:32.266Z,28.84
2023-04-22T06:23:32.271Z,33.36
2023-04-22T06:24:32.250Z,32.20
2023-04-22T06:25:32.258Z,31.64
2023-04-22T06:26:32.230Z,31.87
2023-04-22T06:27:32.216Z,34.39
2023-04-22T06:28:32.224Z,36.20
2023-04-22T06:29:32.202Z,44.08
2023-04-22T06:30:32.212Z,42.57
2023-04-22T06:31:32.263Z,47.60
2023-04-22T06:32:32.239Z,49.62
2023-04-22T06:33:32.213Z,48.49
2023-04-22T06:34:32.280Z,49.99
2023-04-22T06:35:32.317Z,52.24
2023-04-22T06:36:32.393Z,51.85
2023-04-22T06:37:32.429Z,52.32
2023-04-22T06:38:32.518Z,55.18
2023-04-22T06:39:32.570Z,51.44
2023-04-22T06:40:32.626Z,58.39
2023-04-22T06:41:32.674Z,45.44
2023-04-22T06:42:32.728Z,54.42
2023-04-22T06:43:32.787Z,53.98
2023-04-22T06:44:32.868Z,51.54
2023-04-22T06:45:32.912Z,51.63
2023-04-22T06:46:33.022Z,47.31
2023-04-22T06:47:33.089Z,42.89
2023-04-22T06:48:33.087Z,43.11
2023-04-22T06:49:33.143Z,35.31
2023-04-22T06:50:33.192Z,36.96
2023-04-22T06:51:33.678Z,30.22
2023-04-22T06:52:33.289Z,29.38
2023-04-22T06:53:33.324Z,33.42
2023-04-22T06:54:33.348Z,25.52
2023-04-22T06:55:33.429Z,38.48
2023-04-22T06:56:33.458Z,38.09
2023-04-22T06:57:33.527Z,40.76
2023-04-22T06:58:33.545Z,51.80
2023-04-22T06:59:33.589Z,49.61
2023-04-22T07:00:33.618Z,51.32
2023-04-22T07:01:33.705Z,50.27
2023-04-22T07:02:33.800Z,49.95
2023-04-22T07:03:33.989Z,41.36
2023-04-22T07:04:33.843Z,39.42
2023-04-22T07:05:33.852Z,38.39
2023-04-22T07:06:33.888Z,46.04
2023-04-22T07:07:33.940Z,50.87
2023-04-22T07:08:33.996Z,53.75
2023-04-22T07:09:34.034Z,57.17
2023-04-22T07:10:34.074Z,64.26
2023-04-22T07:11:34.123Z,62.26
2023-04-22T07:12:34.177Z,66.29
2023-04-22T07:13:34.260Z,67.10
2023-04-22T07:14:34.264Z,67.22
2023-04-22T07:15:34.318Z,71.03
2023-04-22T07:16:34.410Z,74.29
2023-04-22T07:17:34.448Z,75.93
2023-04-22T07:18:34.517Z,74.46
2023-04-22T07:19:35.311Z,73.37
2023-04-22T07:20:34.592Z,77.04
2023-04-22T07:21:34.636Z,78.50
2023-04-22T07:22:34.701Z,78.75
2023-04-22T07:23:34.751Z,79.92
2023-04-22T07:24:34.784Z,81.33
2023-04-22T07:25:34.835Z,83.78
2023-04-22T07:26:34.910Z,74.15
2023-04-22T07:27:35.300Z,74.57
2023-04-22T07:28:35.000Z,76.47
2023-04-22T07:29:35.048Z,82.36
2023-04-22T07:30:35.108Z,77.53
2023-04-22T07:31:35.192Z,75.00
2023-04-22T07:32:35.252Z,71.50
2023-04-22T07:33:35.268Z,72.84
2023-04-22T07:34:35.334Z,72.29
2023-04-22T07:35:35.388Z,63.15
2023-04-22T07:36:35.447Z,56.03
2023-04-22T07:37:35.528Z,53.07
2023-04-22T07:38:35.568Z,54.75
2023-04-22T07:39:35.648Z,51.45
2023-04-22T07:40:35.696Z,51.19
2023-04-22T07:41:35.734Z,46.71
2023-04-22T07:42:35.802Z,49.22
2023-04-22T07:43:35.840Z,35.64
2023-04-22T07:44:37.019Z,44.65
2023-04-22T07:45:36.025Z,38.49
2023-04-22T07:46:35.900Z,40.49
2023-04-22T07:47:35.890Z,45.83
2023-04-22T07:48:35.876Z,33.57
2023-04-22T07:49:35.855Z,36.17
2023-04-22T07:50:38.121Z,33.50
2023-04-22T07:51:35.866Z,33.64
2023-04-22T07:52:35.846Z,29.26
2023-04-22T07:53:35.841Z,22.67
2023-04-22T07:54:35.821Z,24.15
2023-04-22T07:55:35.834Z,16.52
2023-04-22T07:56:35.821Z,25.00
2023-04-22T07:57:35.792Z,28.13
2023-04-22T07:58:35.800Z,29.23
2023-04-22T07:59:35.794Z,30.14
2023-04-22T08:00:35.811Z,28.45
2023-04-22T08:01:35.791Z,25.00
2023-04-22T08:02:35.901Z,30.68
2023-04-22T08:03:36.027Z,25.23
2023-04-22T08:04:35.837Z,27.25
2023-04-22T08:05:35.746Z,25.00
2023-04-22T08:06:35.766Z,25.98
2023-04-22T08:07:35.734Z,26.70
2023-04-22T08:08:35.749Z,34.06
2023-04-22T08:09:35.735Z,24.31
2023-04-22T08:10:35.741Z,34.92
2023-04-22T08:11:35.714Z,34.76
2023-04-22T08:12:35.724Z,29.22
2023-04-22T08:13:35.700Z,26.05
2023-04-22T08:14:35.695Z,28.18
2023-04-22T08:15:35.741Z,29.27
2023-04-22T08:16:35.698Z,26.90
2023-04-22T08:17:35.795Z,28.40
2023-04-22T08:18:35.667Z,28.06
2023-04-22T08:19:35.661Z,29.64
2023-04-22T08:20:35.666Z,27.99
2023-04-22T08:21:35.654Z,30.02
2023-04-22T08:22:35.660Z,28.05
2023-04-22T08:23:35.644Z,32.18
2023-04-22T08:24:35.643Z,35.30
2023-04-22T08:25:35.666Z,31.79
2023-04-22T08:26:35.633Z,29.59
2023-04-22T08:27:35.628Z,35.90
2023-04-22T08:28:35.610Z,34.65
2023-04-22T08:29:35.613Z,33.34
2023-04-22T08:30:35.633Z,34.78
2023-04-22T08:31:35.699Z,41.09
2023-04-22T08:32:35.717Z,36.70
2023-04-22T08:33:35.739Z,37.19
2023-04-22T08:34:36.642Z,34.78
2023-04-22T08:35:35.905Z,37.57
2023-04-22T08:36:35.914Z,35.49
2023-04-22T08:37:35.940Z,43.77
2023-04-22T08:38:36.014Z,45.00
2023-04-22T08:39:36.050Z,44.96
2023-04-22T08:40:36.114Z,35.49
2023-04-22T08:41:36.163Z,30.26
2023-04-22T08:42:36.226Z,25.00
2023-04-22T08:43:36.276Z,33.71
2023-04-22T08:44:36.276Z,43.94
2023-04-22T08:45:36.325Z,51.15
2023-04-22T08:46:36.350Z,49.50
2023-04-22T08:47:36.384Z,49.43
2023-04-22T08:48:36.382Z,51.54
2023-04-22T08:49:36.502Z,50.50
2023-04-22T08:50:36.456Z,55.46
2023-04-22T08:51:36.467Z,53.99
2023-04-22T08:52:36.484Z,49.34
2023-04-22T08:53:36.515Z,40.57
2023-04-22T08:54:36.518Z,46.28
2023-04-22T08:55:36.588Z,48.59
2023-04-22T08:56:36.545Z,40.38
2023-04-22T08:57:36.572Z,38.90
2023-04-22T08:58:36.583Z,35.15
2023-04-22T08:59:36.591Z,38.37
2023-04-22T09:00:36.624Z,39.03
2023-04-22T09:01:36.638Z,37.70
2023-04-22T09:02:36.624Z,43.64
2023-04-22T09:03:36.672Z,44.74
2023-04-22T09:04:36.752Z,41.24
2023-04-22T09:05:36.588Z,37.87
2023-04-22T09:06:36.598Z,40.76
2023-04-22T09:07:36.604Z,50.71
2023-04-22T09:08:36.601Z,44.96
2023-04-22T09:09:36.641Z,48.41
2023-04-22T09:10:36.587Z,41.34
2023-04-22T09:11:36.597Z,39.07
2023-04-22T09:12:36.586Z,48.49
2023-04-22T09:13:36.589Z,49.10
2023-04-22T09:14:36.607Z,46.77
2023-04-22T09:15:36.614Z,41.99
2023-04-22T09:16:36.634Z,42.90
2023-04-22T09:17:36.617Z,44.67
2023-04-22T09:18:36.617Z,45.33
2023-04-22T09:19:36.638Z,39.51
2023-04-22T09:20:36.627Z,38.55
2023-04-22T09:21:36.627Z,37.99
2023-04-22T09:22:36.648Z,42.10
2023-04-22T09:23:36.657Z,37.55
2023-04-22T09:24:36.645Z,38.24
2023-04-22T09:25:36.677Z,32.93
2023-04-22T09:26:36.686Z,34.74
2023-04-22T09:27:36.690Z,26.55
2023-04-22T09:28:36.698Z,27.05
2023-04-22T09:29:36.895Z,37.53
2023-04-22T09:30:36.710Z,42.86
2023-04-22T09:31:36.747Z,35.20
2023-04-22T09:32:36.707Z,42.56
2023-04-22T09:33:36.725Z,30.59
2023-04-22T09:34:36.725Z,25.66
2023-04-22T09:35:36.730Z,25.84
2023-04-22T09:36:36.783Z,33.12
2023-04-22T09:37:48.861Z,31.04
2023-04-22T09:38:37.760Z,31.87
2023-04-22T09:39:37.049Z,35.18
2023-04-22T09:40:36.764Z,36.52
2023-04-22T09:41:36.754Z,44.01
2023-04-22T09:42:36.741Z,41.75
2023-04-22T09:43:36.734Z,48.72
2023-04-22T09:44:36.720Z,49.17
2023-04-22T09:45:36.757Z,47.83
2023-04-22T09:46:36.756Z,44.28
2023-04-22T09:47:36.818Z,54.44
2023-04-22T09:48:36.697Z,46.72
2023-04-22T09:49:36.798Z,36.78
2023-04-22T09:50:36.668Z,45.64
2023-04-22T09:51:36.683Z,45.81
2023-04-22T09:52:36.675Z,46.73
2023-04-22T09:53:36.671Z,41.07
2023-04-22T09:54:36.660Z,26.13
2023-04-22T09:55:36.638Z,38.39
2023-04-22T09:56:36.632Z,38.45
2023-04-22T09:57:36.635Z,47.92
2023-04-22T09:58:36.614Z,51.59
2023-04-22T09:59:36.624Z,39.59
2023-04-22T10:00:36.620Z,42.77
2023-04-22T10:01:36.627Z,42.30
2023-04-22T10:02:36.654Z,39.63
2023-04-22T10:03:36.655Z,30.15
2023-04-22T10:04:36.723Z,40.43
2023-04-22T10:05:36.699Z,40.17
2023-04-22T10:06:36.713Z,44.63
2023-04-22T10:07:36.817Z,27.30
2023-04-22T10:08:36.763Z,25.00
2023-04-22T10:09:36.936Z,26.57
2023-04-22T10:10:36.815Z,25.00
2023-04-22T10:11:36.849Z,26.02
2023-04-22T10:12:36.880Z,31.11
2023-04-22T10:13:36.904Z,29.21
2023-04-22T10:14:36.945Z,26.75
2023-04-22T10:15:36.958Z,32.08
2023-04-22T10:16:37.021Z,36.35
2023-04-22T10:17:37.054Z,37.71
2023-04-22T10:18:37.054Z,41.50
2023-04-22T10:19:37.073Z,35.75
2023-04-22T10:20:37.101Z,25.00
2023-04-22T10:21:37.123Z,25.00
2023-04-22T10:22:37.153Z,30.64
2023-04-22T10:23:37.179Z,31.14
2023-04-22T10:24:37.229Z,28.30
2023-04-22T10:25:37.239Z,25.00
2023-04-22T10:26:37.290Z,26.07
2023-04-22T10:27:37.282Z,39.65
2023-04-22T10:28:37.332Z,35.75
2023-04-22T10:29:37.562Z,26.50
2023-04-22T10:30:37.388Z,28.60
2023-04-22T10:31:37.412Z,33.96
2023-04-22T10:32:37.436Z,27.64
2023-04-22T10:33:37.462Z,26.64
2023-04-22T10:34:37.499Z,28.54
2023-04-22T10:35:37.510Z,34.10
2023-04-22T10:36:37.555Z,36.89
2023-04-22T10:37:37.569Z,25.24
2023-04-22T10:38:37.642Z,32.89
2023-04-22T10:39:37.653Z,37.63
2023-04-22T10:40:37.681Z,37.11
2023-04-22T10:41:37.723Z,33.25
2023-04-22T10:42:37.783Z,38.47
2023-04-22T10:43:37.784Z,32.01
2023-04-22T10:44:37.804Z,29.90
2023-04-22T10:45:37.855Z,25.65
2023-04-22T10:46:38.163Z,25.00
2023-04-22T10:47:37.938Z,28.61
2023-04-22T10:48:37.943Z,27.56
2023-04-22T10:49:38.298Z,34.68
2023-04-22T10:50:38.021Z,36.79
2023-04-22T10:51:38.060Z,27.19
2023-04-22T10:52:38.099Z,30.83
2023-04-22T10:53:38.125Z,37.41
2023-04-22T10:54:38.160Z,37.59
2023-04-22T10:55:38.196Z,33.28
2023-04-22T10:56:42.968Z,33.93
2023-04-22T10:57:39.228Z,34.00
2023-04-22T10:58:38.230Z,30.61
2023-04-22T10:59:38.351Z,35.91
2023-04-22T11:00:51.639Z,24.53
2023-04-22T11:01:39.252Z,34.01
2023-04-22T11:02:38.371Z,34.23
2023-04-22T11:03:38.257Z,32.24
2023-04-22T11:04:38.182Z,34.02
2023-04-22T11:05:38.188Z,18.84
2023-04-22T11:06:38.173Z,33.66
2023-04-22T11:07:38.155Z,45.62
2023-04-22T11:08:38.160Z,51.82
2023-04-22T11:09:38.305Z,53.20
2023-04-22T11:10:38.142Z,53.49
2023-04-22T11:11:38.137Z,51.52
2023-04-22T11:12:38.111Z,55.06
2023-04-22T11:13:38.130Z,51.12
2023-04-22T11:14:38.114Z,46.30
2023-04-22T11:15:38.128Z,47.95
2023-04-22T11:16:38.180Z,42.70
2023-04-22T11:17:38.251Z,39.41
2023-04-22T11:18:38.227Z,41.52
2023-04-22T11:19:38.468Z,34.31
2023-04-22T11:20:38.317Z,30.11
2023-04-22T11:21:38.348Z,44.70
2023-04-22T11:22:38.408Z,50.31
2023-04-22T11:23:38.427Z,44.60
2023-04-22T11:24:38.479Z,37.52
2023-04-22T11:25:38.548Z,30.97
2023-04-22T11:26:38.588Z,31.24
2023-04-22T11:27:38.589Z,25.00
2023-04-22T11:28:38.624Z,28.73
2023-04-22T11:29:38.841Z,37.21
2023-04-22T11:30:38.711Z,26.69
2023-04-22T11:31:38.802Z,33.08
2023-04-22T11:32:38.833Z,30.51
2023-04-22T11:33:38.834Z,26.73
2023-04-22T11:34:38.890Z,36.84
2023-04-22T11:35:38.933Z,45.08
2023-04-22T11:36:38.973Z,48.63
2023-04-22T11:37:39.016Z,42.69
2023-04-22T11:38:39.068Z,24.28
2023-04-22T11:39:50.233Z,28.61
2023-04-22T11:40:41.458Z,28.69
2023-04-22T11:41:39.135Z,28.66
2023-04-22T11:42:39.102Z,24.03
2023-04-22T11:43:39.102Z,24.62
2023-04-22T11:44:39.076Z,13.20
2023-04-22T11:45:39.111Z,13.41
2023-04-22T11:46:39.086Z,26.88
2023-04-22T11:47:39.125Z,25.00
2023-04-22T11:48:39.096Z,36.92
2023-04-22T11:49:39.374Z,36.01
2023-04-22T11:50:39.061Z,48.01
2023-04-22T11:51:39.049Z,42.58
2023-04-22T11:52:39.044Z,45.25
2023-04-22T11:53:39.034Z,46.99
2023-04-22T11:54:39.043Z,42.46
2023-04-22T11:55:39.020Z,39.40
2023-04-22T11:56:39.041Z,43.03
2023-04-22T11:57:39.011Z,37.62
2023-04-22T11:58:39.069Z,35.05
2023-04-22T11:59:39.186Z,43.76
2023-04-22T12:00:39.149Z,37.03
2023-04-22T12:01:39.190Z,42.75
2023-04-22T12:02:39.370Z,48.18
2023-04-22T12:03:39.381Z,54.71
2023-04-22T12:04:39.363Z,56.57
2023-04-22T12:05:39.523Z,58.70
2023-04-22T12:06:39.425Z,64.03
2023-04-22T12:07:39.468Z,73.47
2023-04-22T12:08:39.554Z,75.92
2023-04-22T12:09:39.949Z,62.44
2023-04-22T12:10:39.636Z,60.97
2023-04-22T12:11:39.679Z,62.58
2023-04-22T12:12:39.728Z,54.49
2023-04-22T12:13:39.796Z,63.54
2023-04-22T12:14:39.836Z,73.56
2023-04-22T12:15:39.879Z,70.31
2023-04-22T12:16:39.969Z,73.92
2023-04-22T12:17:40.010Z,64.97
2023-04-22T12:18:40.038Z,66.97
2023-04-22T12:19:40.330Z,65.08
2023-04-22T12:20:40.149Z,63.47
2023-04-22T12:21:40.186Z,65.39
2023-04-22T12:22:40.249Z,66.46
2023-04-22T12:23:40.295Z,61.96
2023-04-22T12:24:40.331Z,68.22
2023-04-22T12:25:40.394Z,68.71
2023-04-22T12:26:40.439Z,64.68
2023-04-22T12:27:40.470Z,74.56
2023-04-22T12:28:40.536Z,72.20
2023-04-22T12:29:40.740Z,65.93
2023-04-22T12:30:40.611Z,67.35
2023-04-22T12:31:40.752Z,74.10
2023-04-22T12:32:40.732Z,77.34
2023-04-22T12:33:40.811Z,76.89
2023-04-22T12:34:40.849Z,75.49
2023-04-22T12:35:40.935Z,67.93
2023-04-22T12:36:40.928Z,75.67
2023-04-22T12:37:40.992Z,71.85
2023-04-22T12:38:41.049Z,69.73
2023-04-22T12:39:41.319Z,76.67
2023-04-22T12:40:41.139Z,60.68
2023-04-22T12:41:41.180Z,64.23
2023-04-22T12:42:41.248Z,58.00
2023-04-22T12:43:41.302Z,53.80
2023-04-22T12:44:41.350Z,57.39
2023-04-22T12:45:41.404Z,53.56
2023-04-22T12:46:41.475Z,35.86
2023-04-22T12:47:41.528Z,44.42
2023-04-22T12:48:41.539Z,38.48
2023-04-22T12:49:42.256Z,36.75
2023-04-22T12:50:41.641Z,44.17
2023-04-22T12:51:41.694Z,34.89
2023-04-22T12:52:41.778Z,36.54